Impacts METAR Board
IDs:

KRYW - Lago Vista/Allen Arp, TX, US

Updated at: 2300 UTC 29 May 2020
Potential Impact None Slight Moderate High
Time 29/11Z 29/12Z 29/13Z 29/14Z 29/15Z 29/16Z 29/17Z 29/18Z 29/19Z 29/20Z 29/21Z 29/22Z 29/23Z
Temp68 68 69 71 74 76 79 81 82 83 84 85 83
Dewpt65 65 64 65 64 64 63 62 61 60 61 58 57
Altim30.09 30.12 30.13 30.15 30.15 30.15 30.16 30.15 30.15 30.15 30.15 30.12 30.11
VIS10 10 10 10 10 10 10 10 10 10 10 10 10
CIG-- -- -- -- -- -- -- -- -- -- -- -- --
CoverCLRCLRCLRCLRCLRCLRSCTCLRSCTCLRSCTCLRCLR
FltCatVFRVFRVFRVFRVFRVFRVFRVFRVFRVFRVFRVFRVFR
WX--------------------------
WDir300350360201036020503010105060
WSpd5 6 8 6 9 10 13 7 10 7 11 8 7
WGst-- -- -- -- 14 -- 18 14 14 14 17 -- 14
Raw hourly METARs
KRYW 291055Z AUTO 30005KT 10SM CLR 20/18 A3009 RMK AO2 T01990183
KRYW 291155Z AUTO 35006KT 10SM CLR 20/18 A3012 RMK AO2 T02010183 10216 20195
KRYW 291255Z AUTO 36008KT 10SM CLR 21/18 A3013 RMK AO2 T02060177
KRYW 291355Z AUTO 02006KT 10SM CLR 21/18 A3015 RMK AO2 T02140181
KRYW 291455Z AUTO 01009G14KT 10SM CLR 24/18 A3015 RMK AO2 T02360178
KRYW 291555Z AUTO 36010KT 10SM CLR 24/18 A3015 RMK AO2 T02440176
KRYW 291655Z AUTO 02013G18KT 330V040 10SM SCT036 26/17 A3016 RMK AO2 T02590172
KRYW 291755Z AUTO 05007G14KT 10SM CLR 27/17 A3015 RMK AO2 T02710165 10271 20201
KRYW 291855Z AUTO 03010G14KT 10SM SCT048 28/16 A3015 RMK AO2 T02790163
KRYW 291955Z AUTO 01007G14KT 10SM CLR 29/16 A3015 RMK AO2 T02850155
KRYW 292055Z AUTO 01011G17KT 10SM SCT055 29/16 A3015 RMK AO2 T02910159
KRYW 292155Z AUTO 05008KT 020V090 10SM CLR 29/14 A3012 RMK AO2 T02920142
KRYW 292255Z AUTO 06007G14KT 040V100 10SM CLR 29/14 A3011 RMK AO2 T02860137